Time;durP1;ratioP1;P1;durP2;ratioP2;P2;SDS_P1;SDS_P2;PMS_P1;PMS_P2;Temp;Humidity;BMP_temperature;BMP_pressure;BME280_temperature;BME280_humidity;BME280_pressure;Samples;Min_cycle;Max_cycle;Signal;HPM_P1;HPM_P2
2023/05/02 00:00:24;;;;;;;15.10;7.88;;;;;;;8.38;100.00;102224.78;5114248;28;20119;-77
2023/05/02 00:02:49;;;;;;;19.65;8.05;;;;;;;8.43;100.00;102235.09;5096370;28;20035;-77
2023/05/02 00:05:15;;;;;;;15.35;7.93;;;;;;;8.44;100.00;102228.91;5114444;28;20027;-77
2023/05/02 00:07:40;;;;;;;17.15;7.40;;;;;;;8.49;100.00;102237.41;5114925;28;20058;-76
2023/05/02 00:10:07;;;;;;;14.68;6.65;;;;;;;8.57;100.00;102236.97;5114479;28;20065;-78
2023/05/02 00:12:32;;;;;;;18.05;6.85;;;;;;;8.61;100.00;102227.88;5114233;28;20085;-77
2023/05/02 00:14:58;;;;;;;13.82;6.45;;;;;;;8.66;100.00;102236.44;5114810;28;20040;-78
2023/05/02 00:17:23;;;;;;;14.30;6.13;;;;;;;8.70;100.00;102232.63;5114271;28;20042;-76
2023/05/02 00:19:48;;;;;;;10.32;4.93;;;;;;;8.72;100.00;102235.19;5114588;28;20034;-77
2023/05/02 00:22:14;;;;;;;15.43;5.50;;;;;;;8.76;100.00;102236.72;5114658;28;20106;-77
2023/05/02 00:24:39;;;;;;;14.13;5.07;;;;;;;8.78;100.00;102235.69;5113808;28;20108;-76
2023/05/02 00:27:05;;;;;;;11.57;3.95;;;;;;;8.81;100.00;102239.94;5114335;28;20125;-78
2023/05/02 00:29:31;;;;;;;12.57;4.00;;;;;;;8.81;100.00;102242.63;5114063;28;20035;-77
2023/05/02 00:31:59;;;;;;;12.45;4.07;;;;;;;8.80;100.00;102239.06;5114306;28;20051;-78
2023/05/02 00:34:31;;;;;;;13.13;4.55;;;;;;;8.81;100.00;102242.63;5112360;28;20094;-77
2023/05/02 00:36:57;;;;;;;9.07;4.30;;;;;;;8.81;100.00;102239.94;5114454;28;20211;-77
2023/05/02 00:39:23;;;;;;;15.30;4.30;;;;;;;8.81;100.00;102245.25;5113663;28;20062;-77
2023/05/02 00:41:48;;;;;;;14.30;4.88;;;;;;;8.80;100.00;102236.44;5114051;28;20040;-76
2023/05/02 00:44:14;;;;;;;14.77;4.30;;;;;;;8.81;100.00;102234.66;5114331;28;20102;-77
2023/05/02 00:46:39;;;;;;;13.35;4.28;;;;;;;8.82;100.00;102241.63;5113501;28;20242;-78
2023/05/02 00:49:04;;;;;;;13.75;4.93;;;;;;;8.82;100.00;102239.00;5114102;28;20035;-77
2023/05/02 00:51:32;;;;;;;15.98;4.20;;;;;;;8.80;100.00;102238.25;5113753;28;20456;-77
2023/05/02 00:53:59;;;;;;;20.15;4.10;;;;;;;8.78;100.00;102256.91;5112855;28;20435;-80
2023/05/02 00:56:24;;;;;;;19.15;4.63;;;;;;;8.74;100.00;102266.00;5113842;28;20070;-77
2023/05/02 00:58:50;;;;;;;16.80;4.07;;;;;;;8.67;100.00;102261.16;5114154;28;20122;-77
2023/05/02 01:01:32;;;;;;;20.27;4.03;;;;;;;8.59;100.00;102261.63;5114232;28;20126;-78
2023/05/02 01:04:07;;;;;;;12.77;4.05;;;;;;;8.53;100.00;102264.63;5115465;28;20028;-79
2023/05/02 01:06:41;;;;;;;8.38;3.00;;;;;;;8.50;100.00;102267.47;5114209;28;20142;-78
2023/05/02 01:09:13;;;;;;;4.78;2.28;;;;;;;8.47;100.00;102268.50;5114541;28;20034;-77
2023/05/02 01:11:58;;;;;;;;;;;;;;;8.47;100.00;102276.47;5114294;28;20115;-76
2023/05/02 01:14:27;;;;;;;12.10;3.45;;;;;;;8.47;100.00;102269.34;5109508;28;19907;-77
2023/05/02 01:16:55;;;;;;;12.60;2.75;;;;;;;8.46;100.00;102267.66;5114081;28;20031;-78
2023/05/02 01:19:43;;;;;;;13.55;2.95;;;;;;;8.46;100.00;102265.00;5113665;28;20028;-77
2023/05/02 01:22:10;;;;;;;11.40;3.35;;;;;;;8.47;100.00;102266.69;5113775;28;20024;-77
2023/05/02 01:25:14;;;;;;;13.98;3.35;;;;;;;8.47;100.00;102265.84;5113191;28;20035;-77
2023/05/02 01:28:12;;;;;;;13.05;3.03;;;;;;;8.47;100.00;102268.50;5088980;28;20032;-77
2023/05/02 01:30:40;;;;;;;22.30;4.47;;;;;;;8.46;100.00;102269.44;5058302;28;20444;-76
2023/05/02 01:33:09;;;;;;;14.85;3.80;;;;;;;8.47;100.00;102284.41;5113009;28;20035;-77
2023/05/02 01:35:36;;;;;;;12.85;3.38;;;;;;;8.45;100.00;102283.66;5111712;28;20031;-77
2023/05/02 01:38:05;;;;;;;17.13;4.03;;;;;;;8.42;100.00;102295.25;5113188;28;20028;-77
2023/05/02 01:40:32;;;;;;;13.82;3.00;;;;;;;8.41;100.00;102293.56;5112525;28;20107;-77
2023/05/02 01:42:59;;;;;;;14.50;3.45;;;;;;;8.38;100.00;102301.69;5113232;28;20054;-77
2023/05/02 01:45:27;;;;;;;18.60;3.00;;;;;;;8.38;100.00;102301.69;5111468;28;20478;-77
2023/05/02 01:47:53;;;;;;;14.80;2.92;;;;;;;8.34;100.00;102292.19;5112808;28;20048;-77
2023/05/02 01:50:22;;;;;;;9.85;2.90;;;;;;;8.32;100.00;102298.53;5111822;28;20063;-77
2023/05/02 01:52:52;;;;;;;14.02;2.50;;;;;;;8.29;100.00;102302.22;5111155;28;20031;-78
2023/05/02 01:55:17;;;;;;;7.93;2.60;;;;;;;8.25;100.00;102306.81;5112897;28;20210;-76
2023/05/02 01:57:45;;;;;;;17.60;3.55;;;;;;;8.25;100.00;102311.28;5112433;28;20497;-76
2023/05/02 02:00:12;;;;;;;11.50;2.92;;;;;;;8.22;100.00;102309.66;5112700;28;20069;-77
2023/05/02 02:02:39;;;;;;;9.05;2.85;;;;;;;8.22;100.00;102322.06;5112028;28;20471;-76
2023/05/02 02:05:07;;;;;;;15.95;2.95;;;;;;;8.21;100.00;102328.31;5113086;28;20030;-77
2023/05/02 02:07:32;;;;;;;13.93;3.15;;;;;;;8.20;100.00;102329.28;5112188;28;20118;-76
2023/05/02 02:09:58;;;;;;;13.98;3.20;;;;;;;8.19;100.00;102341.66;5112655;28;20112;-77
2023/05/02 02:12:37;;;;;;;16.05;3.13;;;;;;;8.16;100.00;102333.03;5112430;28;20032;-77
2023/05/02 02:15:12;;;;;;;9.95;2.38;;;;;;;8.17;100.00;102342.72;5112544;28;20031;-77
2023/05/02 02:17:52;;;;;;;15.25;2.05;;;;;;;8.14;100.00;102338.41;5111566;28;20114;-76
2023/05/02 02:20:18;;;;;;;12.00;2.60;;;;;;;8.14;100.00;102345.53;5112435;28;20034;-77
2023/05/02 02:22:44;;;;;;;14.45;2.95;;;;;;;8.10;100.00;102342.19;5111563;28;20028;-77
2023/05/02 02:25:13;;;;;;;10.88;3.05;;;;;;;8.08;100.00;102346.72;5112110;28;20459;-76
2023/05/02 02:27:40;;;;;;;13.45;1.92;;;;;;;8.05;100.00;102349.56;5111634;28;20173;-76
2023/05/02 02:30:07;;;;;;;10.52;2.10;;;;;;;8.01;100.00;102348.00;5112291;28;20058;-77
2023/05/02 02:32:32;;;;;;;12.30;2.05;;;;;;;8.02;100.00;102347.91;5112008;28;20027;-76
2023/05/02 02:34:58;;;;;;;6.22;1.75;;;;;;;7.99;100.00;102348.09;5110953;28;20031;-77
2023/05/02 02:37:34;;;;;;;9.88;2.00;;;;;;;7.97;100.00;102347.31;5112085;28;20107;-77
2023/05/02 02:40:03;;;;;;;11.02;2.25;;;;;;;7.97;100.00;102351.75;5111704;28;20043;-77
2023/05/02 02:42:29;;;;;;;6.13;1.75;;;;;;;7.93;100.00;102361.69;5111831;28;20027;-78
2023/05/02 02:45:04;;;;;;;8.25;1.73;;;;;;;7.91;100.00;102350.28;5111532;28;20036;-78
2023/05/02 02:47:47;;;;;;;9.38;2.55;;;;;;;7.88;100.00;102358.41;5111374;28;20047;-77
2023/05/02 02:50:29;;;;;;;5.15;1.50;;;;;;;7.87;100.00;102372.63;5110630;28;20061;-77
2023/05/02 02:53:03;;;;;;;4.60;1.33;;;;;;;7.87;100.00;102362.03;5111491;28;20028;-77
2023/05/02 02:55:49;;;;;;;7.20;1.92;;;;;;;7.85;100.00;102369.19;5112052;28;20034;-79
2023/05/02 02:58:29;;;;;;;6.28;1.65;;;;;;;7.84;100.00;102367.50;5112286;28;20047;-75
2023/05/02 03:00:55;;;;;;;6.75;1.75;;;;;;;7.82;100.00;102374.66;5111780;28;20031;-77
2023/05/02 03:03:27;;;;;;;13.30;2.22;;;;;;;7.80;100.00;102373.91;5111941;28;20486;-77
2023/05/02 03:05:54;;;;;;;16.17;2.00;;;;;;;7.75;100.00;102372.34;5109913;28;20036;-76
2023/05/02 03:08:20;;;;;;;8.98;1.90;;;;;;;7.77;100.00;102382.84;5111503;28;20105;-77
2023/05/02 03:10:45;;;;;;;4.97;1.52;;;;;;;7.77;100.00;102388.16;5111382;28;20033;-77
2023/05/02 03:13:10;;;;;;;6.78;1.73;;;;;;;7.79;100.00;102391.56;5111135;28;20047;-77
2023/05/02 03:15:51;;;;;;;9.57;1.98;;;;;;;7.79;100.00;102391.56;5111504;28;20111;-76
2023/05/02 03:18:17;;;;;;;12.70;2.53;;;;;;;7.79;100.00;102388.06;5111552;28;20035;-77
2023/05/02 03:20:42;;;;;;;8.50;1.88;;;;;;;7.81;100.00;102396.78;5109887;28;20352;-77
2023/05/02 03:23:07;;;;;;;11.15;2.00;;;;;;;7.81;100.00;102394.13;5111999;28;20035;-77
2023/05/02 03:25:33;;;;;;;8.02;2.15;;;;;;;7.79;100.00;102407.47;5111671;28;20028;-78
2023/05/02 03:27:59;;;;;;;8.43;1.95;;;;;;;7.75;100.00;102401.50;5110065;28;20516;-77
2023/05/02 03:30:24;;;;;;;7.63;1.60;;;;;;;7.72;100.00;102412.25;5113946;28;20031;-77
2023/05/02 03:32:50;;;;;;;5.78;2.08;;;;;;;7.71;100.00;102413.19;5115001;28;20027;-78
2023/05/02 03:35:15;;;;;;;6.20;1.80;;;;;;;7.73;100.00;102413.09;5115553;28;20088;-77
2023/05/02 03:37:41;;;;;;;11.32;2.13;;;;;;;7.69;100.00;102408.94;5113826;28;20027;-75
2023/05/02 03:40:07;;;;;;;12.95;2.28;;;;;;;7.67;100.00;102408.97;5115146;28;20036;-78
2023/05/02 03:42:40;;;;;;;7.05;1.77;;;;;;;7.67;100.00;102408.97;5115528;28;20570;-78
2023/05/02 03:45:06;;;;;;;3.97;1.55;;;;;;;7.63;100.00;102414.53;5113328;28;20051;-80
2023/05/02 03:47:31;;;;;;;9.52;1.80;;;;;;;7.61;100.00;102422.56;5113369;28;20076;-76
2023/05/02 03:49:58;;;;;;;3.30;1.70;;;;;;;7.61;100.00;102421.72;5114838;28;20032;-77
2023/05/02 03:52:23;;;;;;;6.43;1.45;;;;;;;7.56;100.00;102428.09;5114793;28;20031;-77
2023/05/02 03:54:49;;;;;;;12.57;1.90;;;;;;;7.55;100.00;102430.81;5112783;28;20081;-78
2023/05/02 03:57:14;;;;;;;5.93;1.63;;;;;;;7.50;100.00;102432.88;5114616;28;20038;-78
2023/05/02 03:59:44;;;;;;;9.32;1.80;;;;;;;7.49;100.00;102436.44;5114399;28;20112;-77
2023/05/02 04:02:10;;;;;;;10.98;2.05;;;;;;;7.50;100.00;102432.88;5115030;28;20031;-78
2023/05/02 04:04:36;;;;;;;8.57;2.10;;;;;;;7.47;100.00;102438.34;5114373;28;20092;-78
2023/05/02 04:07:02;;;;;;;8.20;2.03;;;;;;;7.45;100.00;102446.38;5113872;28;20391;-79
2023/05/02 04:09:27;;;;;;;12.93;1.80;;;;;;;7.46;100.00;102444.56;5114596;28;20471;-78
2023/05/02 04:11:53;;;;;;;10.32;1.90;;;;;;;7.49;100.00;102444.41;5114215;28;20043;-76
2023/05/02 04:14:18;;;;;;;11.65;2.00;;;;;;;7.51;100.00;102453.97;5113078;28;20036;-80
2023/05/02 04:16:51;;;;;;;5.93;2.20;;;;;;;7.50;100.00;102454.91;5114775;28;20036;-77
2023/05/02 04:19:18;;;;;;;14.75;3.55;;;;;;;7.46;100.00;102455.16;5114547;28;20031;-77
2023/05/02 04:21:44;;;;;;;10.95;2.53;;;;;;;7.42;100.00;102451.81;5114548;28;20024;-76
2023/05/02 04:24:10;;;;;;;16.25;2.92;;;;;;;7.42;100.00;102465.06;5114042;28;20031;-76
2023/05/02 04:26:36;;;;;;;9.50;2.50;;;;;;;7.43;100.00;102463.25;5114005;28;20032;-77
2023/05/02 04:29:01;;;;;;;13.50;2.30;;;;;;;7.44;100.00;102472.94;5113758;28;20189;-77
2023/05/02 04:31:27;;;;;;;10.40;2.00;;;;;;;7.46;100.00;102471.88;5113889;28;20382;-77
2023/05/02 04:33:52;;;;;;;6.60;2.00;;;;;;;7.47;100.00;102472.75;5113395;28;20067;-76
2023/05/02 04:36:18;;;;;;;14.30;2.70;;;;;;;7.48;100.00;102479.75;5114005;28;20035;-76
2023/05/02 04:38:44;;;;;;;11.75;2.33;;;;;;;7.49;100.00;102489.41;5113612;28;20131;-76
2023/05/02 04:41:10;;;;;;;9.70;2.25;;;;;;;7.49;100.00;102492.06;5113707;28;20063;-76
2023/05/02 04:43:35;;;;;;;10.60;2.33;;;;;;;7.49;100.00;102495.56;5113710;28;20118;-76
2023/05/02 04:46:01;;;;;;;17.25;2.72;;;;;;;7.51;100.00;102487.53;5113484;28;20165;-78
2023/05/02 04:48:26;;;;;;;20.65;3.30;;;;;;;7.50;100.00;102492.00;5113508;28;20503;-77
2023/05/02 04:50:55;;;;;;;16.60;2.63;;;;;;;7.51;100.00;102496.38;5112247;28;20043;-76
2023/05/02 04:53:21;;;;;;;13.63;2.60;;;;;;;7.53;100.00;102499.78;5113758;28;20455;-77
2023/05/02 04:55:46;;;;;;;17.75;3.47;;;;;;;7.53;100.00;102498.94;5112275;28;20036;-76
2023/05/02 04:58:12;;;;;;;17.85;3.35;;;;;;;7.55;100.00;102505.00;5113096;28;20035;-78
2023/05/02 05:00:37;;;;;;;18.73;3.17;;;;;;;7.51;100.00;102503.44;5113725;28;20143;-76
2023/05/02 05:03:03;;;;;;;11.63;2.72;;;;;;;7.51;100.00;102506.09;5113304;28;20417;-78
2023/05/02 05:05:28;;;;;;;8.77;2.78;;;;;;;7.49;100.00;102502.66;5112191;28;20050;-77
2023/05/02 05:07:53;;;;;;;18.55;3.65;;;;;;;7.47;100.00;102516.00;5112867;28;20041;-78
2023/05/02 05:10:19;;;;;;;18.75;3.70;;;;;;;7.43;100.00;102516.22;5113704;28;20394;-80
2023/05/02 05:12:45;;;;;;;14.10;2.78;;;;;;;7.45;100.00;102514.34;5113920;28;20356;-77
2023/05/02 05:15:10;;;;;;;14.27;3.15;;;;;;;7.46;100.00;102524.00;5112861;28;20513;-76
2023/05/02 05:17:36;;;;;;;16.05;2.80;;;;;;;7.48;100.00;102532.72;5113537;28;20516;-77
2023/05/02 05:20:02;;;;;;;16.23;2.83;;;;;;;7.51;100.00;102540.50;5113078;28;20032;-76
2023/05/02 05:22:28;;;;;;;15.93;2.85;;;;;;;7.53;100.00;102539.50;5112942;28;20386;-75
2023/05/02 05:24:53;;;;;;;18.80;3.35;;;;;;;7.60;100.00;102545.38;5113327;28;20046;-76
2023/05/02 05:27:19;;;;;;;15.90;3.00;;;;;;;7.64;100.00;102538.97;5111746;28;20031;-75
2023/05/02 05:29:44;;;;;;;18.23;2.80;;;;;;;7.68;100.00;102545.81;5113095;28;20107;-78
2023/05/02 05:32:10;;;;;;;14.98;2.80;;;;;;;7.71;100.00;102550.13;5112650;28;20370;-78
2023/05/02 05:34:36;;;;;;;16.80;2.50;;;;;;;7.71;100.00;102548.31;5113128;28;20032;-79
2023/05/02 05:37:01;;;;;;;11.52;2.72;;;;;;;7.78;100.00;102546.22;5112775;28;20390;-79
2023/05/02 05:39:26;;;;;;;14.65;2.92;;;;;;;7.83;100.00;102556.59;5113212;28;20031;-79
2023/05/02 05:41:53;;;;;;;14.00;3.55;;;;;;;7.86;100.00;102559.91;5112836;28;20080;-79
2023/05/02 05:44:20;;;;;;;16.20;3.08;;;;;;;7.93;100.00;102563.13;5112470;28;20186;-78
2023/05/02 05:46:46;;;;;;;13.10;2.67;;;;;;;7.98;100.00;102576.97;5112582;28;20028;-79
2023/05/02 05:49:14;;;;;;;15.00;3.22;;;;;;;8.05;100.00;102581.03;5112907;28;20054;-78
2023/05/02 05:51:40;;;;;;;13.15;3.47;;;;;;;8.12;100.00;102579.78;5112249;28;20485;-83
2023/05/02 05:54:06;;;;;;;15.20;2.53;;;;;;;8.21;100.00;102588.16;5112999;28;20059;-79
2023/05/02 05:56:31;;;;;;;14.05;2.78;;;;;;;8.29;100.00;102588.63;5113523;28;20172;-82
2023/05/02 05:58:56;;;;;;;13.20;3.58;;;;;;;8.35;100.00;102598.91;5113789;28;20036;-81
2023/05/02 06:01:22;;;;;;;14.13;3.13;;;;;;;8.34;100.00;102594.53;5112910;28;20045;-79
2023/05/02 06:03:47;;;;;;;12.52;2.10;;;;;;;8.34;100.00;102604.31;5107786;28;20150;-78
2023/05/02 06:06:12;;;;;;;6.35;2.00;;;;;;;8.34;100.00;102604.31;5108948;28;20084;-78
2023/05/02 06:08:38;;;;;;;11.43;2.78;;;;;;;8.43;100.00;102614.41;5111692;28;20039;-78
2023/05/02 06:11:07;;;;;;;11.27;2.10;;;;;;;8.49;100.00;102611.47;5111658;28;20032;-79
2023/05/02 06:13:33;;;;;;;12.98;2.58;;;;;;;8.58;100.00;102611.00;5109658;28;20043;-79
2023/05/02 06:16:01;;;;;;;14.07;2.88;;;;;;;8.61;100.00;102617.91;5109734;28;20039;-77
2023/05/02 06:18:27;;;;;;;13.07;2.35;;;;;;;8.66;100.00;102623.84;5109565;28;20050;-78
2023/05/02 06:20:52;;;;;;;10.75;2.50;;;;;;;8.67;100.00;102630.84;5109559;28;20031;-78
2023/05/02 06:23:18;;;;;;;11.57;2.40;;;;;;;8.64;100.00;102631.00;5109105;28;20070;-78
2023/05/02 06:25:43;;;;;;;15.25;2.38;;;;;;;8.64;100.00;102629.25;5109251;28;20042;-78
2023/05/02 06:28:08;;;;;;;11.40;2.17;;;;;;;8.71;100.00;102636.88;5108488;28;20126;-77
2023/05/02 06:30:34;;;;;;;9.60;2.45;;;;;;;8.72;100.00;102638.56;5109499;28;20122;-79
2023/05/02 06:32:59;;;;;;;10.63;2.28;;;;;;;8.73;100.00;102645.59;5109580;28;20446;-78
2023/05/02 06:35:25;;;;;;;8.32;2.00;;;;;;;8.76;100.00;102648.94;5109190;28;20034;-78
2023/05/02 06:37:50;;;;;;;8.65;2.00;;;;;;;8.86;100.00;102653.75;5109384;28;20073;-77
2023/05/02 06:40:15;;;;;;;9.27;2.28;;;;;;;8.98;100.00;102650.41;5108526;28;20038;-78
2023/05/02 06:42:41;;;;;;;30.50;4.93;;;;;;;9.07;100.00;102654.38;5107624;28;20039;-77
2023/05/02 06:45:07;;;;;;;12.55;2.47;;;;;;;9.08;100.00;102650.78;5108580;28;20064;-78
2023/05/02 06:47:32;;;;;;;11.48;2.35;;;;;;;9.06;100.00;102663.28;5109375;28;20463;-77
2023/05/02 06:49:57;;;;;;;13.15;2.38;;;;;;;9.09;100.00;102665.75;5109314;28;20390;-79
2023/05/02 06:52:23;;;;;;;13.43;2.50;;;;;;;9.24;100.00;102666.69;5108194;28;20028;-79
2023/05/02 06:54:48;;;;;;;8.50;2.13;;;;;;;9.42;100.00;102668.34;5107956;28;20063;-79
2023/05/02 06:57:14;;;;;;;10.05;2.33;;;;;;;9.52;100.00;102672.19;5109430;28;20032;-78
2023/05/02 06:59:39;;;;;;;8.40;2.30;;;;;;;9.42;100.00;102684.28;5110361;28;20592;-81
2023/05/02 07:02:05;;;;;;;10.77;2.13;;;;;;;9.48;100.00;102675.97;5111647;28;20108;-80
2023/05/02 07:04:31;;;;;;;6.85;1.85;;;;;;;9.40;100.00;102686.16;5114252;28;20036;-80
2023/05/02 07:06:56;;;;;;;13.60;2.40;;;;;;;9.40;100.00;102687.97;5115879;28;20028;-79
2023/05/02 07:09:21;;;;;;;12.23;2.70;;;;;;;9.34;100.00;102687.38;5113941;27;20134;-78
2023/05/02 07:11:47;;;;;;;10.02;2.10;;;;;;;9.43;100.00;102693.09;5113710;28;20035;-78
2023/05/02 07:14:12;;;;;;;9.90;2.25;;;;;;;9.53;100.00;102697.81;5114593;28;20039;-79
2023/05/02 07:16:38;;;;;;;8.05;2.20;;;;;;;9.67;100.00;102697.03;5115003;28;20050;-77
2023/05/02 07:19:05;;;;;;;21.30;3.50;;;;;;;9.77;100.00;102699.16;5115089;28;20035;-78
2023/05/02 07:21:31;;;;;;;16.73;2.38;;;;;;;9.79;100.00;102692.81;5113540;28;20119;-79
2023/05/02 07:23:56;;;;;;;15.63;2.28;;;;;;;9.78;100.00;102693.75;5114040;28;20181;-77
2023/05/02 07:26:23;;;;;;;11.10;2.65;;;;;;;9.78;100.00;102696.41;5113547;28;20421;-78
2023/05/02 07:28:48;;;;;;;14.82;2.58;;;;;;;9.86;100.00;102701.28;5113913;28;20028;-80
2023/05/02 07:31:13;;;;;;;9.27;2.08;;;;;;;9.94;100.00;102709.69;5112129;28;20035;-78
2023/05/02 07:33:39;;;;;;;9.13;1.85;;;;;;;10.04;100.00;102707.31;5113842;28;20391;-77
2023/05/02 07:36:04;;;;;;;8.10;1.98;;;;;;;10.22;100.00;102708.88;5108422;27;20061;-77
2023/05/02 07:38:30;;;;;;;7.90;1.80;;;;;;;10.41;100.00;102716.66;5115053;28;20063;-78
2023/05/02 07:40:59;;;;;;;10.45;1.70;;;;;;;10.65;100.00;102712.63;5115905;28;20118;-81
2023/05/02 07:43:25;;;;;;;7.47;1.60;;;;;;;10.86;100.00;102716.63;5115945;28;20031;-79
2023/05/02 07:45:51;;;;;;;9.55;2.53;;;;;;;10.81;100.00;102717.84;5116657;27;20519;-82
2023/05/02 07:48:16;;;;;;;5.70;1.80;;;;;;;10.82;100.00;102715.09;5115483;28;20139;-79
2023/05/02 07:50:41;;;;;;;4.60;1.40;;;;;;;11.05;100.00;102721.66;5118027;28;20378;-80
2023/05/02 07:53:07;;;;;;;7.78;1.85;;;;;;;11.26;88.18;102727.44;5116753;28;20066;-83
2023/05/02 07:55:32;;;;;;;11.43;1.70;;;;;;;11.34;82.86;102726.09;5115898;28;20058;-82
2023/05/02 07:57:58;;;;;;;7.63;1.55;;;;;;;11.35;79.70;102731.31;5116483;28;20084;-82
2023/05/02 08:00:23;;;;;;;5.63;1.48;;;;;;;11.63;73.90;102735.75;5115783;28;20035;-79
2023/05/02 08:02:48;;;;;;;5.68;1.70;;;;;;;12.06;75.15;102737.44;5116208;28;20069;-81
2023/05/02 08:05:14;;;;;;;9.98;1.60;;;;;;;12.23;64.44;102740.78;5115812;28;20099;-76
2023/05/02 08:07:39;;;;;;;6.95;1.90;;;;;;;12.31;64.08;102743.78;5115885;28;20498;-85
2023/05/02 08:10:06;;;;;;;5.80;1.70;;;;;;;12.39;58.62;102748.59;5102207;28;20028;-77
2023/05/02 08:12:31;;;;;;;6.43;2.05;;;;;;;12.59;58.82;102740.06;5156590;27;20482;-78
2023/05/02 08:14:57;;;;;;;6.95;1.50;;;;;;;12.78;57.68;102739.66;5132254;27;20079;-78
2023/05/02 08:17:22;;;;;;;8.10;1.58;;;;;;;12.77;55.51;102747.78;5132857;27;20043;-81
2023/05/02 08:19:47;;;;;;;8.13;1.80;;;;;;;12.35;55.31;102753.28;5133402;27;20031;-77
2023/05/02 08:22:13;;;;;;;6.60;1.77;;;;;;;12.07;55.74;102749.78;5132758;27;20042;-77
2023/05/02 08:24:38;;;;;;;7.65;1.80;;;;;;;12.01;55.73;102760.88;5132829;27;20123;-78
2023/05/02 08:27:04;;;;;;;4.55;1.30;;;;;;;11.87;56.10;102753.75;5132609;27;20059;-79
2023/05/02 08:29:30;;;;;;;5.55;2.03;;;;;;;12.25;55.13;102757.53;5134594;27;20500;-79
2023/05/02 08:31:55;;;;;;;6.68;1.50;;;;;;;12.37;54.12;102747.84;5119080;27;20380;-85
2023/05/02 08:34:21;;;;;;;6.07;1.45;;;;;;;12.56;55.29;102750.13;5110231;27;20028;-82
2023/05/02 08:36:46;;;;;;;8.23;1.77;;;;;;;12.66;54.19;102757.38;5115801;28;20456;-86
2023/05/02 08:39:12;;;;;;;5.35;2.03;;;;;;;13.22;54.12;102770.38;5116262;28;20442;-83
2023/05/02 08:41:37;;;;;;;4.32;1.35;;;;;;;13.05;52.01;102776.94;5114909;28;20445;-84
2023/05/02 08:44:05;;;;;;;9.32;2.17;;;;;;;12.63;54.18;102770.94;5115812;27;20035;-86
2023/05/02 08:46:33;;;;;;;6.25;1.55;;;;;;;12.86;53.89;102773.84;5115647;28;20027;-81
2023/05/02 08:49:01;;;;;;;9.77;1.60;;;;;;;13.01;52.38;102774.59;5115341;28;20138;-83
2023/05/02 08:51:28;;;;;;;5.78;1.48;;;;;;;13.39;56.90;102763.00;5115210;28;20046;-82
2023/05/02 08:53:54;;;;;;;6.93;1.75;;;;;;;13.49;52.35;102774.72;5116173;28;20042;-83
2023/05/02 08:56:20;;;;;;;9.00;1.98;;;;;;;13.92;51.13;102765.38;5114215;28;20024;-83
2023/05/02 08:58:45;;;;;;;3.42;1.85;;;;;;;14.11;50.33;102775.59;5115347;28;20068;-83
2023/05/02 09:01:19;;;;;;;4.55;1.77;;;;;;;14.60;51.74;102779.88;5114654;28;20031;-83
2023/05/02 09:03:46;;;;;;;7.47;1.90;;;;;;;14.98;48.79;102781.41;5114465;28;20059;-78
2023/05/02 09:06:19;;;;;;;7.75;1.67;;;;;;;15.73;46.94;102781.72;5114730;28;20027;-83
2023/05/02 09:08:53;;;;;;;8.15;1.73;;;;;;;16.53;43.81;102791.19;5116035;28;20035;-82
2023/05/02 09:11:20;;;;;;;10.30;1.50;;;;;;;17.27;43.13;102787.50;5116351;28;20040;-80
2023/05/02 09:13:46;;;;;;;6.20;1.52;;;;;;;18.21;40.37;102785.41;5115265;28;20032;-82
2023/05/02 09:16:14;;;;;;;5.72;1.70;;;;;;;19.16;40.03;102786.38;5113445;28;20027;-81
2023/05/02 09:18:42;;;;;;;9.50;1.85;;;;;;;19.39;38.98;102784.13;5113022;28;20033;-79
2023/05/02 09:21:18;;;;;;;6.10;1.77;;;;;;;19.96;36.38;102783.06;5115884;28;20093;-84
2023/05/02 09:23:49;;;;;;;6.90;1.88;;;;;;;19.37;38.48;102788.81;5115146;28;20572;-84
2023/05/02 09:26:20;;;;;;;7.57;2.17;;;;;;;18.53;37.73;102790.50;5114405;28;20073;-86
2023/05/02 09:28:46;;;;;;;6.32;1.42;;;;;;;18.44;38.14;102794.06;5113683;28;20031;-83
2023/05/02 09:31:16;;;;;;;8.10;2.13;;;;;;;19.09;37.05;102787.97;5114489;28;20050;-84
2023/05/02 09:33:42;;;;;;;9.88;1.85;;;;;;;19.65;35.54;102784.25;5113666;28;20031;-86
2023/05/02 09:36:13;;;;;;;7.45;1.85;;;;;;;20.34;35.44;102792.69;5113438;28;20077;-81
2023/05/02 09:38:39;;;;;;;16.60;2.70;;;;;;;20.60;36.04;102800.84;5114063;28;20042;-81
2023/05/02 09:41:04;;;;;;;67.65;6.07;;;;;;;20.38;35.24;102804.06;5112787;28;20487;-84
2023/05/02 09:43:31;;;;;;;21.48;2.88;;;;;;;20.78;35.00;102805.41;5114419;28;20043;-86
2023/05/02 09:46:08;;;;;;;34.40;3.60;;;;;;;20.59;34.70;102804.56;5114585;28;20093;-82
2023/05/02 09:48:59;;;;;;;9.40;1.85;;;;;;;20.83;33.70;102811.19;5113129;28;20040;-82
2023/05/02 09:51:25;;;;;;;7.75;1.75;;;;;;;20.13;35.33;102811.94;5109621;28;20044;-84
2023/05/02 09:53:51;;;;;;;5.80;1.60;;;;;;;19.78;34.29;102824.44;5113451;28;20027;-82
2023/05/02 09:56:17;;;;;;;8.18;2.00;;;;;;;20.35;33.93;102816.03;5113903;28;20120;-82
2023/05/02 09:58:42;;;;;;;5.00;1.70;;;;;;;20.20;34.98;102825.72;5113573;28;20059;-82
2023/05/02 10:01:14;;;;;;;6.00;1.70;;;;;;;19.49;36.23;102832.66;5113887;28;20474;-81
2023/05/02 10:03:40;;;;;;;6.13;1.88;;;;;;;18.37;37.08;102819.88;5113248;28;20427;-83
2023/05/02 10:06:07;;;;;;;5.28;1.70;;;;;;;18.18;37.86;102835.03;5113805;28;20032;-83
2023/05/02 10:08:34;;;;;;;10.18;2.20;;;;;;;18.17;38.28;102830.66;5111746;28;20085;-83
2023/05/02 10:11:02;;;;;;;5.78;1.52;;;;;;;18.98;37.59;102833.00;5113365;28;20416;-84
2023/05/02 10:13:31;;;;;;;9.43;1.85;;;;;;;19.69;36.20;102831.56;5112751;28;20054;-83
2023/05/02 10:16:01;;;;;;;4.07;1.60;;;;;;;20.46;34.10;102828.44;5112599;28;20043;-81
2023/05/02 10:18:30;;;;;;;6.15;1.80;;;;;;;21.07;34.78;102826.69;5113375;28;20057;-82
2023/05/02 10:21:06;;;;;;;5.50;1.85;;;;;;;21.77;33.43;102832.94;5111656;28;20475;-82
2023/05/02 10:23:33;;;;;;;9.20;2.08;;;;;;;20.54;34.79;102838.47;5113352;28;20161;-79
2023/05/02 10:25:58;;;;;;;7.82;2.10;;;;;;;18.71;37.01;102841.00;5095340;28;20348;-82
2023/05/02 10:28:26;;;;;;;10.15;1.80;;;;;;;18.26;39.40;102848.66;5113351;28;20023;-83
2023/05/02 10:30:52;;;;;;;6.57;2.30;;;;;;;18.97;37.83;102842.09;5112901;28;20114;-82
2023/05/02 10:33:21;;;;;;;5.38;1.95;;;;;;;19.64;38.69;102841.13;5113232;28;20039;-82
2023/05/02 10:35:47;;;;;;;9.63;1.70;;;;;;;20.35;35.98;102831.41;5111536;28;20059;-83
2023/05/02 10:38:23;;;;;;;7.32;1.50;;;;;;;19.87;35.82;102834.31;5112968;28;20424;-84
2023/05/02 10:41:00;;;;;;;10.77;1.88;;;;;;;19.93;36.73;102845.50;5112405;28;20372;-82
2023/05/02 10:43:30;;;;;;;6.93;1.67;;;;;;;20.31;35.61;102840.81;5112957;28;20510;-84
2023/05/02 10:45:55;;;;;;;6.78;1.70;;;;;;;19.40;36.10;102849.75;5112456;28;20032;-83
2023/05/02 10:48:26;;;;;;;5.80;1.88;;;;;;;19.30;37.11;102852.50;5113440;28;20079;-83
2023/05/02 10:50:52;;;;;;;5.18;1.80;;;;;;;19.31;36.73;102851.50;5112885;28;20055;-82
2023/05/02 10:53:25;;;;;;;6.70;1.77;;;;;;;19.15;38.45;102857.50;5113037;28;20106;-82
2023/05/02 10:56:13;;;;;;;7.32;1.70;;;;;;;19.35;37.74;102844.81;5113309;28;20050;-82
2023/05/02 10:58:40;;;;;;;4.82;1.52;;;;;;;19.85;36.30;102840.88;5112974;28;20036;-83
2023/05/02 11:01:27;;;;;;;5.95;1.83;;;;;;;19.61;35.21;102854.91;5113197;28;20023;-82
2023/05/02 11:04:05;;;;;;;4.05;1.80;;;;;;;19.15;35.81;102857.50;5112870;28;20028;-81
2023/05/02 11:06:36;;;;;;;11.15;2.08;;;;;;;19.28;36.92;102852.63;5113464;28;20110;-83
2023/05/02 11:09:19;;;;;;;6.10;1.73;;;;;;;20.02;35.42;102861.66;5112885;28;20027;-82
2023/05/02 11:11:47;;;;;;;4.53;1.77;;;;;;;19.97;37.10;102861.25;5112358;28;20028;-83
2023/05/02 11:14:32;;;;;;;7.63;2.00;;;;;;;20.57;34.41;102857.09;5112647;28;20189;-82
2023/05/02 11:17:00;;;;;;;4.57;1.75;;;;;;;20.55;32.99;102865.34;5112563;28;20088;-82
2023/05/02 11:19:27;;;;;;;3.85;1.50;;;;;;;20.39;34.42;102857.09;5112759;28;20107;-82
2023/05/02 11:22:26;;;;;;;5.90;1.58;;;;;;;20.14;34.47;102854.19;5112078;28;20091;-82
2023/05/02 11:24:52;;;;;;;6.40;1.60;;;;;;;20.11;34.49;102859.03;5112733;28;20439;-83